Boca Raton, FL (33431)

11:55 AM EDT on September 02, 2015 (GMT -0400)
University Gardens | | Change Station
CLOSE
Current Station
Personal Weather Station
Location: Boca Raton, FL
Elevation: 39 ft
Nearby Weather Stations

Elev 39 ft 26.39 °N, 80.09 °W | Updated 5 minutes ago

Overcast
Overcast
89.8 °F
Feels Like 95 °F
N
5.4
Wind Variable Wind from SE
Gusts 6.7 mph

Today
High -- | Low -- °F
--% Chance of Precip.
Yesterday
High -- | Low -- °F
Precip. -- in
7:00 AM 7:39 PM
Waning Gibbous, 79% visible
Pressure 30.11 in
Visibility 10.0 miles
Clouds Scattered Clouds 5000 ft
Scattered Clouds 6500 ft
Heat Index 95 °F
Dew Point 70 °F
Humidity 52%
Rainfall 0.11 in
Snow Depth Not available.
UV 8 out of 12
Pollen 4.70 out of 12
Air Quality Not available.
Flu Activity Not available.
METAR KPMP 021453Z 20005KT 10SM SCT050 SCT065 29/24 A3010 RMK AO2 RAB27E37 TSE10 SLP194 P0000 60000 T02890239 51011
Pressure 30.11 in
Visibility 10.0 miles
Clouds Scattered Clouds 5000 ft
Scattered Clouds 6500 ft
Heat Index 95 °F
Dew Point 70 °F
Humidity 52%
Rainfall 0.11 in
Snow Depth Not available.
UV 8 out of 12
Pollen 4.70 out of 12
Air Quality Not available.
Flu Activity Not available.
METAR KPMP 021453Z 20005KT 10SM SCT050 SCT065 29/24 A3010 RMK AO2 RAB27E37 TSE10 SLP194 P0000 60000 T02890239 51011

10-Day Weather Forecast

×

Almanac

Astronomy

Sep. 02, 2015 Rise Set
Actual Time
Civil Twilight
Nautical Twilight
Astronomical Twilight
Moon
Length of Visible Light
Length of Day
Tomorrow will be .
, % of the Moon is Illuminated

Today's Extremes

State Highs State Lows

Community

WunderPhotos

Upload Photos

1,851,774 photos uploaded!

WunderBlogs® & News

Nearby

Air Quality

  Air Quality AQ Index Pollutant
Not available.

Snow Depth

Station Depth Elevation

Earthquake Activity

City Distance Mag. Time & Date
Minimum magnitude displayed is 2.5.

Coastal Water Temperatures

Place Temperature

Stations

Nearby Weather Stations

Station Location Temp. Windchill Dew Point Humidity Wind Precip. Elev Updated Type